createdAt,value
2018-01-23T00:00:01.442Z,6.45
2018-01-23T00:01:10.276Z,5.41
2018-01-23T00:02:19.378Z,6.46
2018-01-23T00:03:28.210Z,6.83
2018-01-23T00:04:37.338Z,5.51
2018-01-23T00:05:46.168Z,5.41
2018-01-23T00:06:55.003Z,5.22
2018-01-23T00:08:04.104Z,5.51
2018-01-23T00:09:12.938Z,4.93
2018-01-23T00:10:22.040Z,4.84
2018-01-23T00:11:30.867Z,3.89
2018-01-23T00:12:39.698Z,3.51
2018-01-23T00:13:48.803Z,3.13
2018-01-23T00:14:57.633Z,4.36
2018-01-23T00:16:06.564Z,4.27
2018-01-23T00:17:15.389Z,3.03
2018-01-23T00:18:24.221Z,3.61
2018-01-23T00:19:33.050Z,2.84
2018-01-23T00:20:41.881Z,3.22
2018-01-23T00:21:51.011Z,2.66
2018-01-23T00:22:59.895Z,1.23
2018-01-23T00:24:08.675Z,1.14
2018-01-23T00:25:17.504Z,0.85
2018-01-23T00:26:26.332Z,0.76
2018-01-23T00:27:35.313Z,0.28
2018-01-23T00:28:44.144Z,0.38
2018-01-23T00:29:52.977Z,0.47
2018-01-23T00:31:01.806Z,0.57
2018-01-23T00:32:10.635Z,1.14
2018-01-23T00:33:19.514Z,1.51
2018-01-23T00:34:28.346Z,1.23
2018-01-23T00:35:37.176Z,0.57
2018-01-23T00:36:46.000Z,0.66
2018-01-23T00:37:54.831Z,1.04
2018-01-23T00:39:03.780Z,0.76
2018-01-23T00:40:12.610Z,0.57
2018-01-23T00:41:21.718Z,1.23
2018-01-23T00:42:30.556Z,1.23
2018-01-23T00:43:39.385Z,2.56
2018-01-23T00:44:48.465Z,1.61
2018-01-23T00:45:57.294Z,2.37
2018-01-23T00:47:06.125Z,2.28
2018-01-23T00:48:15.230Z,1.99
2018-01-23T00:49:24.058Z,2.28
2018-01-23T00:50:32.988Z,2.66
2018-01-23T00:51:41.817Z,2.47
2018-01-23T00:52:50.648Z,2.47
2018-01-23T00:53:59.481Z,2.47
2018-01-23T00:55:08.310Z,3.51
2018-01-23T00:56:17.241Z,3.32
2018-01-23T00:57:26.071Z,3.8
2018-01-23T00:58:34.901Z,3.89
2018-01-23T00:59:43.730Z,3.41
2018-01-23T01:00:52.560Z,4.65
2018-01-23T01:02:01.388Z,3.99
2018-01-23T01:03:10.216Z,4.65
2018-01-23T01:04:19.045Z,4.17
2018-01-23T01:05:27.874Z,4.55
2018-01-23T01:06:36.702Z,5.41
2018-01-23T01:07:45.583Z,4.36
2018-01-23T01:08:54.417Z,4.65
2018-01-23T01:10:03.247Z,4.36
2018-01-23T01:11:12.074Z,3.7
2018-01-23T01:12:20.903Z,4.27
2018-01-23T01:13:30.035Z,3.89
2018-01-23T01:14:38.862Z,3.7
2018-01-23T01:15:47.692Z,4.27
2018-01-23T01:16:56.524Z,3.41
2018-01-23T01:18:05.353Z,3.99
2018-01-23T01:19:14.183Z,4.74
2018-01-23T01:20:23.013Z,4.74
2018-01-23T01:21:31.843Z,4.36
2018-01-23T01:22:40.675Z,5.32
2018-01-23T01:23:49.501Z,5.6
2018-01-23T01:24:58.480Z,5.32
2018-01-23T01:26:07.311Z,4.93
2018-01-23T01:27:16.140Z,5.12
2018-01-23T01:28:25.243Z,5.41
2018-01-23T01:29:34.070Z,5.22
2018-01-23T01:30:42.904Z,4.84
2018-01-23T01:31:51.736Z,4.65
2018-01-23T01:33:00.567Z,5.22
2018-01-23T01:34:09.395Z,5.51
2018-01-23T01:35:18.225Z,5.12
2018-01-23T01:36:27.053Z,5.79
2018-01-23T01:37:35.886Z,4.65
2018-01-23T01:38:44.992Z,4.55
2018-01-23T01:39:53.820Z,5.32
2018-01-23T01:41:02.651Z,5.41
2018-01-23T01:42:11.630Z,5.32
2018-01-23T01:43:20.461Z,4.93
2018-01-23T01:44:29.286Z,5.6
2018-01-23T01:45:38.117Z,6.07
2018-01-23T01:46:47.223Z,5.69
2018-01-23T01:47:56.151Z,5.79
2018-01-23T01:49:04.981Z,5.69
2018-01-23T01:50:13.810Z,6.07
2018-01-23T01:51:22.640Z,6.17
2018-01-23T01:52:31.470Z,5.79
2018-01-23T01:53:40.701Z,5.6
2018-01-23T01:54:49.528Z,5.51
2018-01-23T01:55:58.632Z,5.6
2018-01-23T01:57:07.463Z,5.6
2018-01-23T01:58:16.295Z,5.03
2018-01-23T01:59:25.422Z,6.07
2018-01-23T02:00:34.250Z,4.84
2018-01-23T02:01:43.351Z,5.88
2018-01-23T02:02:52.179Z,5.98
2018-01-23T02:04:01.010Z,5.88
2018-01-23T02:05:10.093Z,6.17
2018-01-23T02:06:18.921Z,5.6
2018-01-23T02:07:27.749Z,5.88
2018-01-23T02:08:36.578Z,4.65
2018-01-23T02:09:45.409Z,5.51
2018-01-23T02:10:54.913Z,5.88
2018-01-23T02:12:03.745Z,6.26
2018-01-23T02:13:12.575Z,5.88
2018-01-23T02:14:21.402Z,5.79
2018-01-23T02:15:30.230Z,5.32
2018-01-23T02:16:39.209Z,5.88
2018-01-23T02:17:48.039Z,5.22
2018-01-23T02:18:56.868Z,5.51
2018-01-23T02:20:05.971Z,4.74
2018-01-23T02:21:14.801Z,5.79
2018-01-23T02:22:23.630Z,6.07
2018-01-23T02:23:32.460Z,5.22
2018-01-23T02:24:41.289Z,6.07
2018-01-23T02:25:50.118Z,5.69
2018-01-23T02:26:58.952Z,6.74
2018-01-23T02:28:08.033Z,6.26
2018-01-23T02:29:16.857Z,6.07
2018-01-23T02:30:25.688Z,6.17
2018-01-23T02:31:34.517Z,6.64
2018-01-23T02:32:43.344Z,5.41
2018-01-23T02:33:52.472Z,6.45
2018-01-23T02:35:01.570Z,6.07
2018-01-23T02:36:10.400Z,6.36
2018-01-23T02:37:19.231Z,5.69
2018-01-23T02:38:28.064Z,6.07
2018-01-23T02:39:37.147Z,5.98
2018-01-23T02:40:45.974Z,5.88
2018-01-23T02:41:54.805Z,5.79
2018-01-23T02:43:03.927Z,5.32
2018-01-23T02:44:12.806Z,5.6
2018-01-23T02:45:21.635Z,6.07
2018-01-23T02:46:30.472Z,6.36
2018-01-23T02:47:39.573Z,5.79
2018-01-23T02:48:48.402Z,5.79
2018-01-23T02:49:57.232Z,5.79
2018-01-23T02:51:06.061Z,5.69
2018-01-23T02:52:14.890Z,5.32
2018-01-23T02:53:23.999Z,6.17
2018-01-23T02:54:32.828Z,6.07
2018-01-23T02:55:41.657Z,6.17
2018-01-23T02:56:50.595Z,4.74
2018-01-23T02:57:59.430Z,6.45
2018-01-23T02:59:08.262Z,6.64
2018-01-23T03:00:17.362Z,6.17
2018-01-23T03:01:26.191Z,6.17
2018-01-23T03:02:35.069Z,6.26
2018-01-23T03:03:43.899Z,5.88
2018-01-23T03:04:52.729Z,5.6
2018-01-23T03:06:01.561Z,5.79
2018-01-23T03:07:10.442Z,5.41
2018-01-23T03:08:19.322Z,5.98
2018-01-23T03:09:28.421Z,6.17
2018-01-23T03:10:37.252Z,6.36
2018-01-23T03:11:46.081Z,6.55
2018-01-23T03:12:54.907Z,5.98
2018-01-23T03:14:03.740Z,5.79
2018-01-23T03:15:12.569Z,6.26
2018-01-23T03:16:21.400Z,5.98
2018-01-23T03:17:30.229Z,6.07
2018-01-23T03:18:39.059Z,6.07
2018-01-23T03:19:47.890Z,6.17
2018-01-23T03:20:56.718Z,6.17
2018-01-23T03:22:05.548Z,5.98
2018-01-23T03:23:14.381Z,6.55
2018-01-23T03:24:23.486Z,6.17
2018-01-23T03:25:32.318Z,5.98
2018-01-23T03:26:41.146Z,6.07
2018-01-23T03:27:50.247Z,5.22
2018-01-23T03:28:59.079Z,6.45
2018-01-23T03:30:08.187Z,6.64
2018-01-23T03:31:17.446Z,6.64
2018-01-23T03:32:26.274Z,6.55
2018-01-23T03:33:35.104Z,6.07
2018-01-23T03:34:43.933Z,5.98
2018-01-23T03:35:52.761Z,6.17
2018-01-23T03:37:01.894Z,6.17
2018-01-23T03:38:10.993Z,6.07
2018-01-23T03:39:19.825Z,5.79
2018-01-23T03:40:28.656Z,5.79
2018-01-23T03:41:37.484Z,5.79
2018-01-23T03:42:46.736Z,5.32
2018-01-23T03:43:55.565Z,6.36
2018-01-23T03:45:04.395Z,5.79
2018-01-23T03:46:13.223Z,5.51
2018-01-23T03:47:22.052Z,6.07
2018-01-23T03:48:31.181Z,6.26
2018-01-23T03:49:40.008Z,6.17
2018-01-23T03:50:48.844Z,6.45
2018-01-23T03:51:57.669Z,6.17
2018-01-23T03:53:06.549Z,5.79
2018-01-23T03:54:15.426Z,5.98
2018-01-23T03:55:24.259Z,5.88
2018-01-23T03:56:33.087Z,5.98
2018-01-23T03:57:41.916Z,5.79
2018-01-23T03:58:50.744Z,5.69
2018-01-23T03:59:59.672Z,5.69
2018-01-23T04:01:08.502Z,5.79
2018-01-23T04:02:17.605Z,6.07
2018-01-23T04:03:26.432Z,5.79
2018-01-23T04:04:35.261Z,5.88
2018-01-23T04:05:44.094Z,6.07
2018-01-23T04:06:53.198Z,5.79
2018-01-23T04:08:02.024Z,5.12
2018-01-23T04:09:10.854Z,5.6
2018-01-23T04:10:19.684Z,5.98
2018-01-23T04:11:28.663Z,5.51
2018-01-23T04:12:37.492Z,5.41
2018-01-23T04:13:46.323Z,5.51
2018-01-23T04:14:55.157Z,5.69
2018-01-23T04:16:04.258Z,5.79
2018-01-23T04:17:13.235Z,5.98
2018-01-23T04:18:22.066Z,5.79
2018-01-23T04:19:30.897Z,6.17
2018-01-23T04:20:39.726Z,5.88
2018-01-23T04:21:48.555Z,5.79
2018-01-23T04:22:57.384Z,5.6
2018-01-23T04:24:06.216Z,5.88
2018-01-23T04:25:15.041Z,5.69
2018-01-23T04:26:23.870Z,5.79
2018-01-23T04:27:32.701Z,5.69
2018-01-23T04:28:41.907Z,5.88
2018-01-23T04:29:51.018Z,6.17
2018-01-23T04:30:59.847Z,5.69
2018-01-23T04:32:08.678Z,5.6
2018-01-23T04:33:17.507Z,5.6
2018-01-23T04:34:26.437Z,5.22
2018-01-23T04:35:35.264Z,5.69
2018-01-23T04:36:44.095Z,5.69
2018-01-23T04:37:52.927Z,5.6
2018-01-23T04:39:01.756Z,5.98
2018-01-23T04:40:10.737Z,5.6
2018-01-23T04:41:19.564Z,6.07
2018-01-23T04:42:28.396Z,5.98
2018-01-23T04:43:37.226Z,5.41
2018-01-23T04:44:46.052Z,5.51
2018-01-23T04:45:55.084Z,5.32
2018-01-23T04:47:03.923Z,6.17
2018-01-23T04:48:12.756Z,5.98
2018-01-23T04:49:21.857Z,6.07
2018-01-23T04:50:30.685Z,5.6
2018-01-23T04:51:39.815Z,5.98
2018-01-23T04:52:48.643Z,5.69
2018-01-23T04:53:57.472Z,5.22
2018-01-23T04:55:06.302Z,5.32
2018-01-23T04:56:15.130Z,5.69
2018-01-23T04:57:23.958Z,5.79
2018-01-23T04:58:32.787Z,5.69
2018-01-23T04:59:41.617Z,6.26
2018-01-23T05:00:50.448Z,5.98
2018-01-23T05:01:59.278Z,6.17
2018-01-23T05:03:08.106Z,6.07
2018-01-23T05:04:16.936Z,5.98
2018-01-23T05:05:25.767Z,6.26
2018-01-23T05:06:34.594Z,6.07
2018-01-23T05:07:43.424Z,5.98
2018-01-23T05:08:52.656Z,6.26
2018-01-23T05:10:01.488Z,6.17
2018-01-23T05:11:10.318Z,6.17
2018-01-23T05:12:19.154Z,5.88
2018-01-23T05:13:28.258Z,5.88
2018-01-23T05:14:37.235Z,6.17
2018-01-23T05:15:46.073Z,5.98
2018-01-23T05:16:54.900Z,6.07
2018-01-23T05:18:03.731Z,6.17
2018-01-23T05:19:12.562Z,6.17
2018-01-23T05:20:21.693Z,6.64
2018-01-23T05:21:30.521Z,6.45
2018-01-23T05:22:39.625Z,6.64
2018-01-23T05:23:48.456Z,7.21
2018-01-23T05:24:57.287Z,6.93
2018-01-23T05:26:06.217Z,7.4
2018-01-23T05:27:15.045Z,7.12
2018-01-23T05:28:24.148Z,6.64
2018-01-23T05:29:32.977Z,7.12
2018-01-23T05:30:41.806Z,7.03
2018-01-23T05:31:50.885Z,7.4
2018-01-23T05:32:59.720Z,5.98
2018-01-23T05:34:08.822Z,7.12
2018-01-23T05:35:17.651Z,7.97
2018-01-23T05:36:26.484Z,8.26
2018-01-23T05:37:35.363Z,8.26
2018-01-23T05:38:44.192Z,7.59
2018-01-23T05:39:53.023Z,7.59
2018-01-23T05:41:01.888Z,7.97
2018-01-23T05:42:10.959Z,7.5
2018-01-23T05:43:19.887Z,7.5
2018-01-23T05:44:28.718Z,7.4
2018-01-23T05:45:37.545Z,7.21
2018-01-23T05:46:46.377Z,6.93
2018-01-23T05:47:55.206Z,7.4
2018-01-23T05:49:04.137Z,7.03
2018-01-23T05:50:12.966Z,7.4
2018-01-23T05:51:21.798Z,7.03
2018-01-23T05:52:30.627Z,7.5
2018-01-23T05:53:39.459Z,7.21
2018-01-23T05:54:48.436Z,7.59
2018-01-23T05:55:57.266Z,7.21
2018-01-23T05:57:06.095Z,7.31
2018-01-23T05:58:14.925Z,6.93
2018-01-23T05:59:24.026Z,7.21
2018-01-23T06:00:32.907Z,6.93
2018-01-23T06:01:41.735Z,7.12
2018-01-23T06:02:50.562Z,7.03
2018-01-23T06:03:59.390Z,7.21
2018-01-23T06:05:08.222Z,7.31
2018-01-23T06:06:17.102Z,7.21
2018-01-23T06:07:25.929Z,7.03
2018-01-23T06:08:34.791Z,7.21
2018-01-23T06:09:43.584Z,6.83
2018-01-23T06:10:52.416Z,8.26
2018-01-23T06:12:01.347Z,7.97
2018-01-23T06:13:10.177Z,7.88
2018-01-23T06:14:19.008Z,7.12
2018-01-23T06:15:27.836Z,7.31
2018-01-23T06:16:36.668Z,7.21
2018-01-23T06:17:45.599Z,7.31
2018-01-23T06:18:54.428Z,7.78
2018-01-23T06:20:03.258Z,6.93
2018-01-23T06:21:12.358Z,7.31
2018-01-23T06:22:21.189Z,7.59
2018-01-23T06:23:30.071Z,7.4
2018-01-23T06:24:38.902Z,7.4
2018-01-23T06:25:47.733Z,7.59
2018-01-23T06:26:56.560Z,7.12
2018-01-23T06:28:05.391Z,7.21
2018-01-23T06:29:14.226Z,6.74
2018-01-23T06:30:23.339Z,7.5
2018-01-23T06:31:32.475Z,7.31
2018-01-23T06:32:41.279Z,7.21
2018-01-23T06:33:50.109Z,7.21
2018-01-23T06:34:58.938Z,7.5
2018-01-23T06:36:07.770Z,7.4
2018-01-23T06:37:16.877Z,7.5
2018-01-23T06:38:25.979Z,7.68
2018-01-23T06:39:34.810Z,7.12
2018-01-23T06:40:43.642Z,8.26
2018-01-23T06:41:52.472Z,8.16
2018-01-23T06:43:01.304Z,8.16
2018-01-23T06:44:10.131Z,8.16
2018-01-23T06:45:18.961Z,7.88
2018-01-23T06:46:27.791Z,8.45
2018-01-23T06:47:36.621Z,8.07
2018-01-23T06:48:45.453Z,7.68
2018-01-23T06:49:54.559Z,8.16
2018-01-23T06:51:03.393Z,7.88
2018-01-23T06:52:12.222Z,7.88
2018-01-23T06:53:21.052Z,7.5
2018-01-23T06:54:29.883Z,7.4
2018-01-23T06:55:38.713Z,7.88
2018-01-23T06:56:47.545Z,8.07
2018-01-23T06:57:56.373Z,7.78
2018-01-23T06:59:05.201Z,7.78
2018-01-23T07:00:14.032Z,8.07
2018-01-23T07:01:22.863Z,7.78
2018-01-23T07:02:31.688Z,7.88
2018-01-23T07:03:40.568Z,7.97
2018-01-23T07:04:49.753Z,7.68
2018-01-23T07:05:58.577Z,7.59
2018-01-23T07:07:07.410Z,7.59
2018-01-23T07:08:16.243Z,7.78
2018-01-23T07:09:25.074Z,7.97
2018-01-23T07:10:34.478Z,8.07
2018-01-23T07:11:43.306Z,8.35
2018-01-23T07:12:52.135Z,7.31
2018-01-23T07:14:01.243Z,7.88
2018-01-23T07:15:10.074Z,7.68
2018-01-23T07:16:19.008Z,8.07
2018-01-23T07:17:27.832Z,7.59
2018-01-23T07:18:36.661Z,7.97
2018-01-23T07:19:45.492Z,7.59
2018-01-23T07:20:54.321Z,7.68
2018-01-23T07:22:03.304Z,7.78
2018-01-23T07:23:12.132Z,8.07
2018-01-23T07:24:21.013Z,7.97
2018-01-23T07:25:29.793Z,7.68
2018-01-23T07:26:38.624Z,7.21
2018-01-23T07:27:48.026Z,7.4
2018-01-23T07:28:56.859Z,7.31
2018-01-23T07:30:05.691Z,7.5
2018-01-23T07:31:14.522Z,7.4
2018-01-23T07:32:23.354Z,7.31
2018-01-23T07:33:32.236Z,7.31
2018-01-23T07:34:41.065Z,7.31
2018-01-23T07:35:49.895Z,7.4
2018-01-23T07:36:58.725Z,7.59
2018-01-23T07:38:07.832Z,7.12
2018-01-23T07:39:16.765Z,7.12
2018-01-23T07:40:25.595Z,7.03
2018-01-23T07:41:34.429Z,7.21
2018-01-23T07:42:43.259Z,8.07
2018-01-23T07:43:52.087Z,7.78
2018-01-23T07:45:01.316Z,7.31
2018-01-23T07:46:10.150Z,7.21
2018-01-23T07:47:19.258Z,7.4
2018-01-23T07:48:28.083Z,7.4
2018-01-23T07:49:36.914Z,7.5
2018-01-23T07:50:45.845Z,7.68
2018-01-23T07:51:54.675Z,7.5
2018-01-23T07:53:03.503Z,7.59
2018-01-23T07:54:12.332Z,7.4
2018-01-23T07:55:21.164Z,7.5
2018-01-23T07:56:29.997Z,7.78
2018-01-23T07:57:38.825Z,7.59
2018-01-23T07:58:47.660Z,7.97
2018-01-23T07:59:56.490Z,7.78
2018-01-23T08:01:05.371Z,8.26
2018-01-23T08:02:14.449Z,8.16
2018-01-23T08:03:23.277Z,7.4
2018-01-23T08:04:32.108Z,8.35
2018-01-23T08:05:41.211Z,8.07
2018-01-23T08:06:50.042Z,7.59
2018-01-23T08:07:58.877Z,8.35
2018-01-23T08:09:08.256Z,8.35
2018-01-23T08:10:17.087Z,8.07
2018-01-23T08:11:26.244Z,8.54
2018-01-23T08:12:35.072Z,8.54
2018-01-23T08:13:43.901Z,8.45
2018-01-23T08:14:52.732Z,8.35
2018-01-23T08:16:01.563Z,8.73
2018-01-23T08:17:10.392Z,8.64
2018-01-23T08:18:19.222Z,8.26
2018-01-23T08:19:28.202Z,8.35
2018-01-23T08:20:37.040Z,9.11
2018-01-23T08:21:45.869Z,8.54
2018-01-23T08:22:54.699Z,9.49
2018-01-23T08:24:03.532Z,10.25
2018-01-23T08:25:12.662Z,11.1
2018-01-23T08:26:21.493Z,10.82
2018-01-23T08:27:30.324Z,10.06
2018-01-23T08:28:39.152Z,9.97
2018-01-23T08:29:48.261Z,10.63
2018-01-23T08:30:57.192Z,11.49
2018-01-23T08:32:06.026Z,10.91
2018-01-23T08:33:14.861Z,11.87
2018-01-23T08:34:23.692Z,11.01
2018-01-23T08:35:32.522Z,11.87
2018-01-23T08:36:41.350Z,12.25
2018-01-23T08:37:50.180Z,12.15
2018-01-23T08:38:59.014Z,11.96
2018-01-23T08:40:07.846Z,12.73
2018-01-23T08:41:16.677Z,13.01
2018-01-23T08:42:25.560Z,13.39
2018-01-23T08:43:34.395Z,13.39
2018-01-23T08:44:43.222Z,13.1
2018-01-23T08:45:52.051Z,13.1
2018-01-23T08:47:01.159Z,13.2
2018-01-23T08:48:10.240Z,13.29
2018-01-23T08:49:19.073Z,14.43
2018-01-23T08:50:27.934Z,13.87
2018-01-23T08:51:37.012Z,14.53
2018-01-23T08:52:45.843Z,14.43
2018-01-23T08:53:54.676Z,13.87
2018-01-23T08:55:03.508Z,14.06
2018-01-23T08:56:12.340Z,15.86
2018-01-23T08:57:21.172Z,15.77
2018-01-23T08:58:30.005Z,16.14
2018-01-23T08:59:38.934Z,16.72
2018-01-23T09:00:47.766Z,16.05
2018-01-23T09:01:56.597Z,15.2
2018-01-23T09:03:05.428Z,15.86
2018-01-23T09:04:14.259Z,17.95
2018-01-23T09:05:23.242Z,18.14
2018-01-23T09:06:32.070Z,17.57
2018-01-23T09:07:40.902Z,17.1
2018-01-23T09:08:49.734Z,17.85
2018-01-23T09:09:58.566Z,17.85
2018-01-23T09:11:07.399Z,18.8
2018-01-23T09:12:16.229Z,18.8
2018-01-23T09:13:25.062Z,19.28
2018-01-23T09:14:33.893Z,20.23
2018-01-23T09:15:42.721Z,20.32
2018-01-23T09:16:51.653Z,18.99
2018-01-23T09:18:00.485Z,20.99
2018-01-23T09:19:09.318Z,21.08
2018-01-23T09:20:18.151Z,20.51
2018-01-23T09:21:26.983Z,21.75
2018-01-23T09:22:35.865Z,21.37
2018-01-23T09:23:44.694Z,21.47
2018-01-23T09:24:53.523Z,20.7
2018-01-23T09:26:02.356Z,22.22
2018-01-23T09:27:11.187Z,22.89
2018-01-23T09:28:20.022Z,23.46
2018-01-23T09:29:28.849Z,24.03
2018-01-23T09:30:37.679Z,24.88
2018-01-23T09:31:46.511Z,23.93
2018-01-23T09:32:55.341Z,24.41
2018-01-23T09:34:04.474Z,24.32
2018-01-23T09:35:13.308Z,23.84
2018-01-23T09:36:22.141Z,24.41
2018-01-23T09:37:30.974Z,24.6
2018-01-23T09:38:39.806Z,25.26
2018-01-23T09:39:49.089Z,25.55
2018-01-23T09:40:57.926Z,26.78
2018-01-23T09:42:06.756Z,26.88
2018-01-23T09:43:15.586Z,28.11
2018-01-23T09:44:24.417Z,27.73
2018-01-23T09:45:33.251Z,27.83
2018-01-23T09:46:42.085Z,27.92
2018-01-23T09:47:50.917Z,28.78
2018-01-23T09:48:59.747Z,28.68
2018-01-23T09:50:08.579Z,28.4
2018-01-23T09:51:17.408Z,29.35
2018-01-23T09:52:26.241Z,29.16
2018-01-23T09:53:35.072Z,28.78
2018-01-23T09:54:44.177Z,28.21
2018-01-23T09:55:53.011Z,28.4
2018-01-23T09:57:02.414Z,30.3
2018-01-23T09:58:11.248Z,30.01
2018-01-23T09:59:20.079Z,29.82
2018-01-23T10:00:28.915Z,30.01
2018-01-23T10:01:37.747Z,30.3
2018-01-23T10:02:46.958Z,29.25
2018-01-23T10:03:55.787Z,30.4
2018-01-23T10:05:04.621Z,29.73
2018-01-23T10:06:13.457Z,29.06
2018-01-23T10:07:22.285Z,31.44
2018-01-23T10:08:31.365Z,32.2
2018-01-23T10:09:40.198Z,32.01
2018-01-23T10:10:49.031Z,33.34
2018-01-23T10:11:57.866Z,33.15
2018-01-23T10:13:06.976Z,34.76
2018-01-23T10:14:15.804Z,34.48
2018-01-23T10:15:25.184Z,33.34
2018-01-23T10:16:34.015Z,34.29
2018-01-23T10:17:42.853Z,34.09
2018-01-23T10:18:51.959Z,33.44
2018-01-23T10:20:00.991Z,35.9
2018-01-23T10:21:09.825Z,35.81
2018-01-23T10:22:18.656Z,36.57
2018-01-23T10:23:27.490Z,36.19
2018-01-23T10:24:36.323Z,36.47
2018-01-23T10:25:45.205Z,37.52
2018-01-23T10:26:54.036Z,37.71
2018-01-23T10:28:02.871Z,37.8
2018-01-23T10:29:11.700Z,38.09
2018-01-23T10:30:20.530Z,38.37
2018-01-23T10:31:29.462Z,38.37
2018-01-23T10:32:38.293Z,39.53
2018-01-23T10:33:47.126Z,38.56
2018-01-23T10:34:55.960Z,38.18
2018-01-23T10:36:04.798Z,38.2
2018-01-23T10:37:13.625Z,38.29
2018-01-23T10:38:22.458Z,40.1
2018-01-23T10:39:31.291Z,40.2
2018-01-23T10:40:40.123Z,40.1
2018-01-23T10:41:49.509Z,40.37
2018-01-23T10:42:58.715Z,40.01
2018-01-23T10:44:07.547Z,40.75
2018-01-23T10:45:16.379Z,39.91
2018-01-23T10:46:25.212Z,40.39
2018-01-23T10:47:34.044Z,40.29
2018-01-23T10:48:43.175Z,40.2
2018-01-23T10:49:52.008Z,40.67
2018-01-23T10:51:00.839Z,39.91
2018-01-23T10:52:09.670Z,40.1
2018-01-23T10:53:18.505Z,41.53
2018-01-23T10:54:27.735Z,42.76
2018-01-23T10:55:36.566Z,44.57
2018-01-23T10:56:45.397Z,44.19
2018-01-23T10:57:54.229Z,45.23
2018-01-23T10:59:03.062Z,44.67
2018-01-23T11:00:11.943Z,44.76
2018-01-23T11:01:20.774Z,44.67
2018-01-23T11:02:29.606Z,46
2018-01-23T11:03:38.437Z,45.9
2018-01-23T11:04:47.271Z,45.52
2018-01-23T11:05:56.354Z,45.71
2018-01-23T11:07:05.189Z,49.13
2018-01-23T11:08:14.020Z,48.27
2018-01-23T11:09:22.851Z,48.94
2018-01-23T11:10:31.684Z,47.99
2018-01-23T11:11:40.567Z,49.41
2018-01-23T11:12:49.398Z,50.08
2018-01-23T11:13:58.230Z,50.74
2018-01-23T11:15:07.062Z,50.46
2018-01-23T11:16:15.894Z,50.74
2018-01-23T11:17:24.726Z,48.37
2018-01-23T11:18:33.556Z,48.37
2018-01-23T11:19:42.386Z,48.85
2018-01-23T11:20:51.217Z,49.98
2018-01-23T11:22:00.051Z,51.79
2018-01-23T11:23:09.133Z,50.46
2018-01-23T11:24:17.966Z,51.03
2018-01-23T11:25:26.798Z,51.7
2018-01-23T11:26:35.629Z,51.7
2018-01-23T11:27:44.463Z,51.98
2018-01-23T11:28:53.394Z,52.74
2018-01-23T11:30:02.228Z,53.03
2018-01-23T11:31:11.062Z,54.74
2018-01-23T11:32:19.895Z,52.74
2018-01-23T11:33:28.727Z,55.24
2018-01-23T11:34:37.810Z,55.4
2018-01-23T11:35:46.644Z,55.5
2018-01-23T11:36:55.477Z,55.5
2018-01-23T11:38:04.312Z,55.69
2018-01-23T11:39:13.145Z,53.43
2018-01-23T11:40:22.027Z,54.19
2018-01-23T11:41:30.862Z,55.62
2018-01-23T11:42:39.697Z,55.81
2018-01-23T11:43:48.812Z,54.07
2018-01-23T11:44:57.928Z,55.59
2018-01-23T11:46:06.866Z,56.38
2018-01-23T11:47:15.698Z,56.48
2018-01-23T11:48:24.583Z,56.95
2018-01-23T11:49:33.416Z,56.85
2018-01-23T11:50:42.248Z,57.71
2018-01-23T11:51:51.457Z,56.76
2018-01-23T11:53:00.300Z,57.81
2018-01-23T11:54:09.152Z,57.24
2018-01-23T11:55:18.273Z,57.14
2018-01-23T11:56:27.329Z,56.57
2018-01-23T11:57:36.445Z,57.43
2018-01-23T11:58:45.305Z,58.47
2018-01-23T11:59:54.661Z,58.76
2018-01-23T12:01:03.786Z,61.23
2018-01-23T12:02:12.874Z,60.38
2018-01-23T12:03:22.553Z,58.47
2018-01-23T12:04:31.680Z,58.47
2018-01-23T12:05:40.803Z,59.14
2018-01-23T12:06:50.096Z,59.71
2018-01-23T12:07:59.230Z,61.32
2018-01-23T12:09:08.492Z,60.66
2018-01-23T12:10:17.826Z,61.23
2018-01-23T12:11:26.876Z,62.37
2018-01-23T12:12:36.037Z,61.71
2018-01-23T12:13:44.881Z,60.66
2018-01-23T12:14:53.714Z,61.23
2018-01-23T12:16:02.606Z,61.04
2018-01-23T12:17:11.441Z,61.32
2018-01-23T12:18:20.479Z,62.27
2018-01-23T12:19:29.323Z,60.94
2018-01-23T12:22:17.366Z,61.71
2018-01-23T12:23:26.556Z,62.08
2018-01-23T12:24:35.434Z,61.52
2018-01-23T12:25:44.426Z,62.56
2018-01-23T12:26:53.517Z,62.08
2018-01-23T12:28:02.452Z,61.23
2018-01-23T12:29:11.667Z,61.9
2018-01-23T12:30:20.999Z,63.13
2018-01-23T12:31:29.871Z,63.13
2018-01-23T12:32:39.338Z,62.18
2018-01-23T12:33:48.202Z,62.46
2018-01-23T12:34:57.797Z,63.04
2018-01-23T12:36:06.652Z,63.04
2018-01-23T12:37:15.948Z,61.9
2018-01-23T12:38:25.069Z,62.85
2018-01-23T12:39:33.901Z,61.42
2018-01-23T12:40:42.776Z,63.23
2018-01-23T12:41:51.611Z,63.23
2018-01-23T12:43:00.769Z,63.6
2018-01-23T12:44:09.808Z,63.13
2018-01-23T12:45:18.643Z,64.08
2018-01-23T12:46:27.475Z,64.65
2018-01-23T12:47:36.308Z,63.42
2018-01-23T12:48:45.212Z,64.65
2018-01-23T12:49:54.026Z,63.7
2018-01-23T12:51:02.859Z,65.22
2018-01-23T12:52:11.697Z,65.03
2018-01-23T12:53:20.801Z,64.84
2018-01-23T12:54:29.683Z,64.37
2018-01-23T12:55:38.820Z,64.18
2018-01-23T12:56:47.651Z,64.08
2018-01-23T12:57:56.495Z,64.65
2018-01-23T12:59:05.912Z,64.18
2018-01-23T13:00:14.876Z,64.08
2018-01-23T13:01:23.707Z,63.7
2018-01-23T13:02:32.540Z,64.08
2018-01-23T13:03:42.064Z,65.51
2018-01-23T13:04:50.915Z,64.27
2018-01-23T13:05:59.946Z,63.99
2018-01-23T13:07:08.784Z,64.65
2018-01-23T13:08:17.892Z,65.32
2018-01-23T13:09:26.724Z,66.17
2018-01-23T13:10:35.836Z,65.99
2018-01-23T13:11:44.997Z,66.46
2018-01-23T13:12:53.834Z,65.22
2018-01-23T13:14:02.667Z,65.7
2018-01-23T13:15:11.500Z,66.55
2018-01-23T13:16:20.610Z,66.36
2018-01-23T13:17:29.772Z,66.65
2018-01-23T13:18:38.572Z,66.94
2018-01-23T13:19:47.676Z,66.46
2018-01-23T13:20:56.509Z,66.74
2018-01-23T13:22:05.342Z,67.03
2018-01-23T13:23:14.276Z,67.22
2018-01-23T13:24:23.110Z,68.17
2018-01-23T13:25:31.943Z,67.69
2018-01-23T13:26:40.777Z,68.46
2018-01-23T13:27:49.609Z,69.31
2018-01-23T13:28:58.493Z,68.74
2018-01-23T13:30:07.328Z,68.65
2018-01-23T13:31:16.161Z,69.21
2018-01-23T13:32:24.993Z,68.65
2018-01-23T13:33:33.827Z,69.69
2018-01-23T13:34:42.710Z,69.02
2018-01-23T13:35:51.819Z,68.65
2018-01-23T13:37:00.653Z,69.12
2018-01-23T13:38:09.486Z,68.55
2018-01-23T13:39:18.593Z,69.21
2018-01-23T13:40:27.530Z,68.74
2018-01-23T13:41:36.360Z,69.41
2018-01-23T13:42:45.193Z,71.12
2018-01-23T13:43:54.030Z,70.64
2018-01-23T13:45:02.860Z,69.88
2018-01-23T13:46:11.743Z,70.54
2018-01-23T13:47:20.575Z,70.93
2018-01-23T13:48:29.413Z,71.78
2018-01-23T13:49:38.252Z,71.22
2018-01-23T13:50:47.083Z,71.31
2018-01-23T13:51:56.069Z,71.12
2018-01-23T13:53:04.910Z,72.16
2018-01-23T13:54:13.739Z,71.69
2018-01-23T13:55:22.570Z,70.93
2018-01-23T13:56:31.403Z,71.78
2018-01-23T13:57:40.788Z,69.98
2018-01-23T13:58:49.620Z,72.26
2018-01-23T13:59:58.730Z,72.64
2018-01-23T14:01:07.837Z,72.92
2018-01-23T14:02:16.722Z,72.35
2018-01-23T14:03:25.605Z,72.55
2018-01-23T14:04:34.437Z,71.88
2018-01-23T14:05:43.270Z,73.02
2018-01-23T14:06:52.103Z,73.4
2018-01-23T14:08:00.934Z,72.74
2018-01-23T14:09:09.920Z,73.69
2018-01-23T14:10:18.754Z,73.69
2018-01-23T14:11:27.865Z,73.4
2018-01-23T14:12:36.695Z,72.16
2018-01-23T14:13:45.528Z,73.78
2018-01-23T14:14:54.410Z,74.16
2018-01-23T14:16:03.250Z,73.3
2018-01-23T14:17:12.179Z,73.97
2018-01-23T14:18:21.284Z,73.88
2018-01-23T14:19:30.395Z,73.88
2018-01-23T14:20:39.232Z,73.69
2018-01-23T14:21:48.063Z,73.97
2018-01-23T14:22:56.896Z,73.78
2018-01-23T14:24:05.727Z,73.88
2018-01-23T14:25:14.560Z,74.35
2018-01-23T14:26:23.544Z,73.97
2018-01-23T14:27:32.648Z,73.59
2018-01-23T14:28:41.480Z,74.73
2018-01-23T14:29:50.312Z,74.35
2018-01-23T14:30:59.144Z,73.97
2018-01-23T14:32:08.078Z,74.82
2018-01-23T14:33:16.910Z,73.78
2018-01-23T14:34:25.739Z,74.82
2018-01-23T14:35:34.572Z,74.16
2018-01-23T14:36:43.405Z,75.02
2018-01-23T14:37:52.289Z,73.97
2018-01-23T14:39:01.126Z,74.26
2018-01-23T14:40:09.957Z,73.97
2018-01-23T14:41:18.843Z,73.49
2018-01-23T14:42:27.624Z,72.64
2018-01-23T14:43:36.509Z,74.07
2018-01-23T14:44:45.342Z,73.97
2018-01-23T14:45:54.172Z,73.4
2018-01-23T14:47:03.008Z,73.69
2018-01-23T14:48:11.838Z,74.07
2018-01-23T14:49:20.722Z,73.49
2018-01-23T14:50:29.553Z,73.88
2018-01-23T14:51:38.386Z,73.59
2018-01-23T14:52:47.218Z,73.78
2018-01-23T14:53:56.047Z,73.97
2018-01-23T14:55:05.129Z,73.78
2018-01-23T14:56:13.962Z,73.3
2018-01-23T14:57:22.794Z,72.64
2018-01-23T14:58:31.627Z,73.3
2018-01-23T14:59:40.468Z,73.02
2018-01-23T15:00:49.450Z,73.69
2018-01-23T15:01:58.284Z,72.92
2018-01-23T15:03:07.117Z,72.64
2018-01-23T15:04:15.951Z,73.02
2018-01-23T15:05:24.782Z,73.3
2018-01-23T15:06:33.915Z,73.88
2018-01-23T15:07:42.747Z,73.3